createdAt,value
2022-07-31T00:00:48.612Z,99845.72
2022-07-31T00:03:16.844Z,99837.06
2022-07-31T00:05:45.023Z,99830.59
2022-07-31T00:08:14.537Z,99825.13
2022-07-31T00:10:42.716Z,99825.25
2022-07-31T00:13:10.825Z,99823.53
2022-07-31T00:15:40.217Z,99826.22
2022-07-31T00:18:08.824Z,99820.69
2022-07-31T00:20:37.192Z,99822.63
2022-07-31T00:23:06.030Z,99816.19
2022-07-31T00:25:35.643Z,99816.31
2022-07-31T00:28:03.797Z,99828.41
2022-07-31T00:30:32.047Z,99825.00
2022-07-31T00:33:00.171Z,99827.91
2022-07-31T00:35:28.350Z,99831.94
2022-07-31T00:38:24.751Z,99828.88
2022-07-31T00:40:50.552Z,99833.03
2022-07-31T00:43:19.629Z,99830.22
2022-07-31T00:45:49.417Z,99835.38
2022-07-31T00:48:27.888Z,99834.25
2022-07-31T00:50:56.518Z,99843.13
2022-07-31T00:53:24.718Z,99838.63
2022-07-31T00:55:54.343Z,99835.72
2022-07-31T00:58:22.513Z,99837.66
2022-07-31T01:00:51.250Z,99838.28
2022-07-31T01:03:19.873Z,99845.78
2022-07-31T01:05:48.116Z,99840.03
2022-07-31T01:08:16.976Z,99846.47
2022-07-31T01:10:53.629Z,99849.06
2022-07-31T01:13:32.413Z,99846.25
2022-07-31T01:16:04.588Z,99844.41
2022-07-31T01:18:35.940Z,99845.88
2022-07-31T01:21:09.957Z,99843.78
2022-07-31T01:24:15.574Z,99848.06
2022-07-31T01:27:04.297Z,99853.88
2022-07-31T01:29:38.874Z,99852.16
2022-07-31T01:32:10.924Z,99852.81
2022-07-31T01:34:45.649Z,99862.19
2022-07-31T01:37:20.837Z,99859.78
2022-07-31T01:39:55.836Z,99854.50
2022-07-31T01:42:26.128Z,99855.84
2022-07-31T01:44:59.478Z,99849.28
2022-07-31T01:47:29.234Z,99859.88
2022-07-31T01:49:59.579Z,99857.56
2022-07-31T01:52:30.263Z,99858.31
2022-07-31T01:55:00.007Z,99848.53
2022-07-31T01:57:31.659Z,99855.25
2022-07-31T02:00:07.325Z,99853.91
2022-07-31T02:02:58.652Z,99844.41
2022-07-31T02:05:37.517Z,99850.88
2022-07-31T02:08:07.804Z,99842.97
2022-07-31T02:10:38.429Z,99846.63
2022-07-31T02:13:07.550Z,99841.44
2022-07-31T02:15:38.830Z,99833.16
2022-07-31T02:18:08.591Z,99842.28
2022-07-31T02:20:38.305Z,99831.69
2022-07-31T02:23:07.566Z,99830.13
2022-07-31T02:25:38.138Z,99833.13
2022-07-31T02:28:10.310Z,99824.72
2022-07-31T02:30:41.986Z,99818.97
2022-07-31T02:33:14.969Z,99826.88
2022-07-31T02:35:45.920Z,99820.19
2022-07-31T02:38:23.316Z,99822.50
2022-07-31T02:40:57.012Z,99823.59
2022-07-31T02:43:26.785Z,99821.50
2022-07-31T02:45:58.937Z,99824.09
2022-07-31T02:48:28.458Z,99832.13
2022-07-31T02:51:00.980Z,99823.84
2022-07-31T02:53:30.947Z,99821.03
2022-07-31T02:56:04.557Z,99820.75
2022-07-31T02:58:35.090Z,99821.03
2022-07-31T03:01:07.140Z,99831.75
2022-07-31T03:03:36.862Z,99818.44
2022-07-31T03:06:05.237Z,99814.78
2022-07-31T03:08:34.590Z,99825.88
2022-07-31T03:11:05.794Z,99828.91
2022-07-31T03:13:36.134Z,99834.38
2022-07-31T03:16:11.394Z,99829.00
2022-07-31T03:18:41.295Z,99829.13
2022-07-31T03:21:11.720Z,99829.38
2022-07-31T03:23:40.361Z,99840.34
2022-07-31T03:26:15.161Z,99831.56
2022-07-31T03:28:43.778Z,99834.22
2022-07-31T03:31:13.645Z,99819.88
2022-07-31T03:33:42.674Z,99827.81
2022-07-31T03:36:11.331Z,99834.63
2022-07-31T03:38:43.185Z,99814.75
2022-07-31T03:41:34.075Z,99822.19
2022-07-31T03:44:02.514Z,99811.00
2022-07-31T03:46:33.666Z,99821.97
2022-07-31T03:49:02.118Z,99820.66
2022-07-31T03:51:30.746Z,99827.13
2022-07-31T03:53:59.692Z,99819.44
2022-07-31T03:56:51.070Z,99826.50
2022-07-31T03:59:21.558Z,99836.38
2022-07-31T04:02:10.552Z,99825.78
2022-07-31T04:04:44.365Z,99831.25
2022-07-31T04:07:12.722Z,99822.09
2022-07-31T04:09:41.069Z,99825.50
2022-07-31T04:12:11.219Z,99829.28
2022-07-31T04:14:39.569Z,99835.59
2022-07-31T04:17:09.107Z,99834.50
2022-07-31T04:19:37.394Z,99832.44
2022-07-31T04:22:06.653Z,99839.91
2022-07-31T04:24:35.566Z,99834.25
2022-07-31T04:27:26.327Z,99839.59
2022-07-31T04:29:54.452Z,99839.50
2022-07-31T04:32:24.334Z,99835.09
2022-07-31T04:34:56.035Z,99843.88
2022-07-31T04:37:24.096Z,99822.22
2022-07-31T04:39:52.701Z,99826.97
2022-07-31T04:42:21.370Z,99830.63
2022-07-31T04:44:49.647Z,99834.75
2022-07-31T04:47:18.008Z,99827.28
2022-07-31T04:49:51.725Z,99824.28
2022-07-31T04:52:22.570Z,99824.78
2022-07-31T04:54:51.986Z,99827.81
2022-07-31T04:57:22.089Z,99827.69
2022-07-31T04:59:58.599Z,99817.84
2022-07-31T05:02:30.102Z,99827.41
2022-07-31T05:05:00.112Z,99828.38
2022-07-31T05:07:39.144Z,99828.59
2022-07-31T05:10:35.363Z,99831.72
2022-07-31T05:13:03.790Z,99829.88
2022-07-31T05:15:33.922Z,99826.09
2022-07-31T05:18:01.994Z,99835.31
2022-07-31T05:20:43.994Z,99831.19
2022-07-31T05:23:32.976Z,99836.44
2022-07-31T05:26:16.494Z,99829.84
2022-07-31T05:28:46.694Z,99831.66
2022-07-31T05:31:15.298Z,99832.16
2022-07-31T05:33:44.184Z,99836.66
2022-07-31T05:36:14.334Z,99838.19
2022-07-31T05:38:43.526Z,99838.00
2022-07-31T05:41:49.096Z,99832.78
2022-07-31T05:44:35.617Z,99834.75
2022-07-31T05:47:03.771Z,99834.47
2022-07-31T05:49:32.595Z,99834.91
2022-07-31T05:52:03.540Z,99835.56
2022-07-31T05:54:33.435Z,99843.25
2022-07-31T05:57:33.567Z,99837.47
2022-07-31T06:00:03.873Z,99834.91
2022-07-31T06:02:40.373Z,99851.78
2022-07-31T06:05:27.564Z,99850.44
2022-07-31T06:07:57.137Z,99847.31
2022-07-31T06:10:25.937Z,99833.66
2022-07-31T06:12:54.826Z,99838.88
2022-07-31T06:15:23.426Z,99840.47
2022-07-31T06:17:51.799Z,99834.69
2022-07-31T06:20:26.088Z,99844.75
2022-07-31T06:22:55.512Z,99839.41
2022-07-31T06:25:28.756Z,99845.81
2022-07-31T06:28:07.004Z,99850.50
2022-07-31T06:30:39.698Z,99846.75
2022-07-31T06:33:08.804Z,99848.97
2022-07-31T06:35:45.022Z,99853.56
2022-07-31T06:38:34.992Z,99846.13
2022-07-31T06:41:40.549Z,99845.34
2022-07-31T06:44:27.323Z,99849.28
2022-07-31T06:47:15.985Z,99856.50
2022-07-31T06:50:03.043Z,99865.78
2022-07-31T06:52:36.888Z,99847.09
2022-07-31T06:55:07.378Z,99859.75
2022-07-31T06:57:38.919Z,99850.00
2022-07-31T07:00:20.046Z,99858.53
2022-07-31T07:02:51.917Z,99858.75
2022-07-31T07:05:21.635Z,99844.03
2022-07-31T07:07:53.025Z,99844.09
2022-07-31T07:10:21.250Z,99852.53
2022-07-31T07:13:02.668Z,99843.69
2022-07-31T07:15:34.874Z,99828.78
2022-07-31T07:18:03.062Z,99835.47
2022-07-31T07:20:48.260Z,99835.94
2022-07-31T07:23:16.361Z,99837.41
2022-07-31T07:26:01.707Z,99832.69
2022-07-31T07:28:31.714Z,99846.94
2022-07-31T07:31:03.543Z,99831.22
2022-07-31T07:33:41.241Z,99830.75
2022-07-31T07:36:22.795Z,99820.00
2022-07-31T07:38:55.192Z,99819.81
2022-07-31T07:41:25.061Z,99831.84
2022-07-31T07:43:55.161Z,99810.06
2022-07-31T07:46:27.330Z,99809.81
2022-07-31T07:48:59.155Z,99825.94
2022-07-31T07:52:00.141Z,99819.78
2022-07-31T07:54:34.697Z,99822.53
2022-07-31T07:57:41.344Z,99835.28
2022-07-31T08:00:29.604Z,99837.00
2022-07-31T08:03:48.168Z,99835.00
2022-07-31T08:05:50.875Z,99828.81
2022-07-31T08:08:18.981Z,99840.75
2022-07-31T08:10:49.748Z,99846.19
2022-07-31T08:13:36.489Z,99845.47
2022-07-31T08:16:27.679Z,99861.31
2022-07-31T08:18:58.635Z,99870.84
2022-07-31T08:21:27.906Z,99861.31
2022-07-31T08:23:56.477Z,99862.53
2022-07-31T08:26:27.432Z,99868.63
2022-07-31T08:28:57.134Z,99870.81
2022-07-31T08:31:29.598Z,99867.63
2022-07-31T08:34:31.437Z,99875.19
2022-07-31T08:37:51.231Z,99873.47
2022-07-31T08:39:52.849Z,99878.63
2022-07-31T08:42:21.145Z,99852.38
2022-07-31T08:44:49.273Z,99872.16
2022-07-31T08:47:23.651Z,99866.53
2022-07-31T08:49:53.867Z,99859.34
2022-07-31T08:52:24.945Z,99869.97
2022-07-31T08:55:08.676Z,99861.91
2022-07-31T08:57:36.856Z,99862.88
2022-07-31T09:00:07.389Z,99865.34
2022-07-31T09:02:36.988Z,99864.97
2022-07-31T09:05:42.196Z,99859.34
2022-07-31T09:08:15.070Z,99872.28
2022-07-31T09:10:49.925Z,99865.94
2022-07-31T09:13:20.340Z,99885.19
2022-07-31T09:15:52.721Z,99903.34
2022-07-31T09:18:25.180Z,99885.75
2022-07-31T09:21:09.156Z,99885.91
2022-07-31T09:23:46.276Z,99887.84
2022-07-31T09:26:15.407Z,99907.59
2022-07-31T09:28:46.237Z,99905.03
2022-07-31T09:31:15.030Z,99913.78
2022-07-31T09:34:30.801Z,99920.13
2022-07-31T09:37:16.311Z,99920.13
2022-07-31T09:40:21.241Z,99924.22
2022-07-31T09:43:19.834Z,99926.50
2022-07-31T09:45:58.832Z,99927.22
2022-07-31T09:48:28.590Z,99925.84
2022-07-31T09:51:00.911Z,99921.13
2022-07-31T09:53:43.674Z,99930.16
2022-07-31T09:56:33.187Z,99908.84
2022-07-31T09:59:03.358Z,99925.28
2022-07-31T10:01:36.497Z,99916.06
2022-07-31T10:04:08.085Z,99922.47
2022-07-31T10:06:39.142Z,99917.13
2022-07-31T10:09:08.965Z,99933.00
2022-07-31T10:11:59.783Z,99911.41
2022-07-31T10:14:32.218Z,99922.31
2022-07-31T10:17:04.758Z,99943.38
2022-07-31T10:20:02.318Z,99925.06
2022-07-31T10:23:06.709Z,99932.47
2022-07-31T10:25:38.927Z,99934.63
2022-07-31T10:28:08.036Z,99944.16
2022-07-31T10:30:39.107Z,99923.19
2022-07-31T10:33:27.924Z,99915.66
2022-07-31T10:36:21.053Z,99922.59
2022-07-31T10:39:17.147Z,99921.56
2022-07-31T10:42:06.552Z,99928.19
2022-07-31T10:44:42.506Z,99928.19
2022-07-31T10:47:20.354Z,99928.09
2022-07-31T10:50:22.346Z,99926.25
2022-07-31T10:53:09.723Z,99936.41
2022-07-31T10:56:03.539Z,99920.53
2022-07-31T10:58:49.602Z,99929.94
2022-07-31T11:01:52.910Z,99940.44
2022-07-31T11:04:40.059Z,99936.19
2022-07-31T11:07:20.109Z,99938.38
2022-07-31T11:10:17.963Z,99933.00
2022-07-31T11:13:11.963Z,99935.19
2022-07-31T11:16:06.729Z,99926.16
2022-07-31T11:19:09.100Z,99934.56
2022-07-31T11:21:39.530Z,99940.16
2022-07-31T11:24:15.754Z,99936.34
2022-07-31T11:26:50.542Z,99945.66
2022-07-31T11:30:01.031Z,99954.28
2022-07-31T11:32:25.220Z,99969.78
2022-07-31T11:34:55.816Z,99972.16
2022-07-31T11:37:30.574Z,99957.78
2022-07-31T11:40:14.933Z,99954.13
2022-07-31T11:42:44.786Z,99963.84
2022-07-31T11:45:16.759Z,99965.03
2022-07-31T11:48:12.564Z,99962.72
2022-07-31T11:50:41.195Z,99980.50
2022-07-31T11:53:09.395Z,99978.59
2022-07-31T11:55:46.632Z,99965.31
2022-07-31T11:58:16.725Z,99968.13
2022-07-31T12:00:50.961Z,99968.38
2022-07-31T12:03:20.363Z,99964.72
2022-07-31T12:05:49.804Z,99957.75
2022-07-31T12:08:18.227Z,99949.34
2022-07-31T12:10:47.638Z,99952.03
2022-07-31T12:13:17.573Z,99954.06
2022-07-31T12:15:58.408Z,99964.03
2022-07-31T12:18:29.806Z,99952.38
2022-07-31T12:21:00.437Z,99959.09
2022-07-31T12:23:41.347Z,99962.69
2022-07-31T12:26:12.359Z,99961.09
2022-07-31T12:28:40.686Z,99976.38
2022-07-31T12:31:10.185Z,99963.94
2022-07-31T12:33:42.649Z,99958.34
2022-07-31T12:36:15.433Z,99968.22
2022-07-31T12:38:45.057Z,99963.25
2022-07-31T12:41:16.044Z,99967.25
2022-07-31T12:43:51.098Z,99975.03
2022-07-31T12:46:22.836Z,99982.72
2022-07-31T12:48:52.079Z,99983.69
2022-07-31T12:51:44.195Z,99994.78
2022-07-31T12:54:10.162Z,99975.66
2022-07-31T12:56:39.631Z,99981.25
2022-07-31T12:59:08.728Z,99981.53
2022-07-31T13:01:38.361Z,99988.47
2022-07-31T13:04:07.830Z,99981.81
2022-07-31T13:06:37.554Z,99990.94
2022-07-31T13:09:06.090Z,99987.66
2022-07-31T13:11:45.626Z,99989.25
2022-07-31T13:14:15.923Z,99980.19
2022-07-31T13:16:45.552Z,99984.56
2022-07-31T13:19:14.140Z,99985.47
2022-07-31T13:21:48.838Z,99992.50
2022-07-31T13:24:19.561Z,99989.00
2022-07-31T13:26:48.186Z,99992.88
2022-07-31T13:29:16.959Z,100005.06
2022-07-31T13:31:46.718Z,100008.19
2022-07-31T13:34:14.981Z,99993.66
2022-07-31T13:36:43.261Z,99997.91
2022-07-31T13:39:11.921Z,100009.28
2022-07-31T13:41:40.465Z,99985.88
2022-07-31T13:44:09.768Z,99991.75
2022-07-31T13:46:38.123Z,99991.47
2022-07-31T13:49:10.609Z,99973.03
2022-07-31T13:51:39.593Z,99978.03
2022-07-31T13:54:08.621Z,99990.34
2022-07-31T13:56:42.524Z,100000.22
2022-07-31T13:59:13.253Z,99991.81
2022-07-31T14:02:12.984Z,99987.34
2022-07-31T14:04:38.742Z,99984.84
2022-07-31T14:07:08.329Z,100002.41
2022-07-31T14:09:37.824Z,100004.84
2022-07-31T14:12:06.831Z,99992.66
2022-07-31T14:14:35.542Z,100000.69
2022-07-31T14:17:03.733Z,99983.88
2022-07-31T14:19:43.913Z,100004.56
2022-07-31T14:22:13.177Z,99988.72
2022-07-31T14:24:41.728Z,99990.53
2022-07-31T14:27:18.030Z,99982.38
2022-07-31T14:29:46.787Z,99978.94
2022-07-31T14:32:14.925Z,100004.38
2022-07-31T14:34:44.479Z,100016.53
2022-07-31T14:37:12.734Z,100008.09
2022-07-31T14:39:42.797Z,100006.13
2022-07-31T14:42:11.449Z,100016.44
2022-07-31T14:44:41.981Z,100008.91
2022-07-31T14:47:10.854Z,100026.72
2022-07-31T14:50:09.129Z,100022.50
2022-07-31T14:52:29.661Z,100011.00
2022-07-31T14:54:59.884Z,100010.88
2022-07-31T14:57:28.912Z,99999.31
2022-07-31T14:59:57.083Z,99986.44
2022-07-31T15:02:25.302Z,99973.41
2022-07-31T15:04:54.681Z,99968.22
2022-07-31T15:07:43.874Z,99961.47
2022-07-31T15:10:13.123Z,99967.09
2022-07-31T15:12:41.234Z,99968.03
2022-07-31T15:15:10.706Z,99968.91
2022-07-31T15:17:38.811Z,99980.88
2022-07-31T15:20:07.980Z,99978.28
2022-07-31T15:22:36.208Z,99974.13
2022-07-31T15:25:04.315Z,99968.38
2022-07-31T15:27:33.950Z,99960.06
2022-07-31T15:30:06.527Z,99961.91
2022-07-31T15:32:36.807Z,99967.63
2022-07-31T15:35:06.771Z,99970.06
2022-07-31T15:37:36.280Z,99960.44
2022-07-31T15:40:07.152Z,99958.50
2022-07-31T15:42:40.586Z,99969.09
2022-07-31T15:45:10.693Z,99962.28
2022-07-31T15:47:39.293Z,99957.50
2022-07-31T15:50:09.813Z,99954.22
2022-07-31T15:52:38.496Z,99937.88
2022-07-31T15:55:08.852Z,99945.72
2022-07-31T15:57:38.576Z,99956.44
2022-07-31T16:00:11.071Z,99956.44
2022-07-31T16:02:41.536Z,99947.41
2022-07-31T16:05:36.284Z,99945.59
2022-07-31T16:08:28.803Z,99939.47
2022-07-31T16:10:54.016Z,99938.22
2022-07-31T16:13:24.694Z,99945.78
2022-07-31T16:15:53.195Z,99944.09
2022-07-31T16:18:21.407Z,99936.16
2022-07-31T16:20:50.046Z,99944.41
2022-07-31T16:23:18.424Z,99943.44
2022-07-31T16:25:46.711Z,99945.63
2022-07-31T16:28:15.188Z,99945.38
2022-07-31T16:30:46.051Z,99945.16
2022-07-31T16:33:14.840Z,99944.41
2022-07-31T16:35:43.041Z,99940.66
2022-07-31T16:38:11.292Z,99931.00
2022-07-31T16:40:39.463Z,99935.63
2022-07-31T16:43:47.713Z,99931.00
2022-07-31T16:45:58.292Z,99929.28
2022-07-31T16:48:26.559Z,99926.16
2022-07-31T16:50:55.132Z,99928.81
2022-07-31T16:54:10.754Z,99930.28
2022-07-31T16:56:12.780Z,99937.88
2022-07-31T16:58:40.980Z,99933.22
2022-07-31T17:01:58.005Z,99935.28
2022-07-31T17:04:03.142Z,99935.06
2022-07-31T17:06:36.368Z,99932.25
2022-07-31T17:09:17.076Z,99927.88
2022-07-31T17:11:48.298Z,99934.69
2022-07-31T17:14:16.729Z,99938.09
2022-07-31T17:16:49.242Z,99928.81
2022-07-31T17:19:42.605Z,99921.88
2022-07-31T17:22:07.531Z,99923.97
2022-07-31T17:24:37.540Z,99936.53
2022-07-31T17:27:08.545Z,99934.22
2022-07-31T17:29:37.667Z,99940.66
2022-07-31T17:32:11.192Z,99940.28
2022-07-31T17:34:39.902Z,99943.94
2022-07-31T17:37:08.518Z,99930.66
2022-07-31T17:39:37.226Z,99946.50
2022-07-31T17:42:05.859Z,99958.34
2022-07-31T17:44:37.862Z,99958.47
2022-07-31T17:47:09.986Z,99965.75
2022-07-31T17:49:38.662Z,99969.41
2022-07-31T17:52:07.812Z,99970.25
2022-07-31T17:54:35.949Z,99961.13
2022-07-31T17:57:07.134Z,99966.38
2022-07-31T17:59:35.328Z,99979.06
2022-07-31T18:02:04.807Z,99980.88
2022-07-31T18:04:36.989Z,99972.84
2022-07-31T18:07:07.123Z,99972.94
2022-07-31T18:09:36.752Z,99980.75
2022-07-31T18:12:05.381Z,99975.63
2022-07-31T18:14:34.037Z,99974.88
2022-07-31T18:17:02.171Z,99975.75
2022-07-31T18:19:30.477Z,99979.41
2022-07-31T18:22:00.084Z,99976.97
2022-07-31T18:24:28.619Z,99981.34
2022-07-31T18:26:58.549Z,99979.75
2022-07-31T18:29:26.923Z,99983.88
2022-07-31T18:31:55.140Z,99971.19
2022-07-31T18:34:23.379Z,99985.47
2022-07-31T18:36:54.743Z,99981.19
2022-07-31T18:39:24.896Z,99991.19
2022-07-31T18:41:53.676Z,99975.59
2022-07-31T18:44:22.532Z,99981.56
2022-07-31T18:46:51.042Z,99985.94
2022-07-31T18:51:01.207Z,99986.06
2022-07-31T18:52:11.798Z,99990.47
2022-07-31T18:54:41.314Z,99994.09
2022-07-31T18:57:09.753Z,100001.28
2022-07-31T18:59:38.443Z,99997.75
2022-07-31T19:02:12.091Z,100005.94
2022-07-31T19:04:40.772Z,100012.34
2022-07-31T19:07:08.989Z,100011.72
2022-07-31T19:09:37.299Z,100012.47
2022-07-31T19:12:08.696Z,100019.53
2022-07-31T19:14:37.214Z,100014.28
2022-07-31T19:17:05.897Z,100019.03
2022-07-31T19:19:51.218Z,100018.19
2022-07-31T19:22:23.690Z,100030.97
2022-07-31T19:24:52.170Z,100038.91
2022-07-31T19:27:21.772Z,100041.69
2022-07-31T19:30:10.641Z,100039.13
2022-07-31T19:32:39.088Z,100052.41
2022-07-31T19:35:07.975Z,100042.53
2022-07-31T19:37:36.307Z,100042.31
2022-07-31T19:40:06.182Z,100029.75
2022-07-31T19:42:35.881Z,100025.00
2022-07-31T19:45:04.306Z,100032.00
2022-07-31T19:47:32.617Z,100038.41
2022-07-31T19:50:00.733Z,100035.47
2022-07-31T19:52:28.947Z,100027.66
2022-07-31T19:54:57.143Z,100022.94
2022-07-31T19:57:25.378Z,100016.56
2022-07-31T19:59:54.884Z,100027.63
2022-07-31T20:02:23.102Z,100027.06
2022-07-31T20:04:51.159Z,100018.00
2022-07-31T20:07:19.316Z,100017.16
2022-07-31T20:09:48.032Z,100014.72
2022-07-31T20:12:17.989Z,100023.25
2022-07-31T20:14:46.150Z,100007.66
2022-07-31T20:17:15.650Z,100020.31
2022-07-31T20:20:02.877Z,100019.88
2022-07-31T20:22:32.350Z,100011.13
2022-07-31T20:25:00.892Z,100015.72
2022-07-31T20:27:39.993Z,100018.34
2022-07-31T20:30:11.232Z,100006.66
2022-07-31T20:32:48.731Z,100008.59
2022-07-31T20:35:47.330Z,100011.91
2022-07-31T20:38:05.241Z,100009.22
2022-07-31T20:40:33.437Z,100012.00
2022-07-31T20:43:03.286Z,100009.03
2022-07-31T20:45:31.602Z,100015.00
2022-07-31T20:48:01.880Z,100004.28
2022-07-31T20:50:30.142Z,100015.50
2022-07-31T20:52:58.280Z,100011.66
2022-07-31T20:55:26.395Z,100023.28
2022-07-31T20:57:54.538Z,100017.94
2022-07-31T21:00:22.752Z,100018.28
2022-07-31T21:02:51.292Z,100022.28
2022-07-31T21:05:26.942Z,100019.94
2022-07-31T21:07:56.583Z,100027.84
2022-07-31T21:10:28.137Z,100029.91
2022-07-31T21:12:58.135Z,100033.44
2022-07-31T21:15:41.938Z,100026.19
2022-07-31T21:18:13.082Z,100025.66
2022-07-31T21:20:50.726Z,100031.03
2022-07-31T21:23:22.303Z,100030.72
2022-07-31T21:25:50.888Z,100034.69
2022-07-31T21:28:19.461Z,100035.66
2022-07-31T21:30:48.019Z,100041.91
2022-07-31T21:33:16.424Z,100040.19
2022-07-31T21:35:46.637Z,100037.16
2022-07-31T21:38:17.121Z,100044.69
2022-07-31T21:40:46.429Z,100037.50
2022-07-31T21:43:18.629Z,100041.66
2022-07-31T21:45:57.516Z,100053.09
2022-07-31T21:48:30.981Z,100049.47
2022-07-31T21:51:01.751Z,100046.16
2022-07-31T21:53:29.969Z,100054.84
2022-07-31T21:56:01.895Z,100052.28
2022-07-31T21:58:30.040Z,100055.56
2022-07-31T22:00:58.317Z,100057.50
2022-07-31T22:03:26.555Z,100058.56
2022-07-31T22:06:11.913Z,100054.41
2022-07-31T22:08:41.426Z,100063.56
2022-07-31T22:11:09.781Z,100054.69
2022-07-31T22:13:37.864Z,100058.03
2022-07-31T22:16:07.159Z,100061.97
2022-07-31T22:18:35.856Z,100060.59
2022-07-31T22:21:06.847Z,100054.91
2022-07-31T22:23:35.910Z,100061.34
2022-07-31T22:26:05.810Z,100070.34
2022-07-31T22:28:34.435Z,100060.91
2022-07-31T22:31:03.054Z,100057.59
2022-07-31T22:33:31.385Z,100053.44
2022-07-31T22:36:02.717Z,100048.69
2022-07-31T22:38:31.853Z,100053.94
2022-07-31T22:41:00.543Z,100045.06
2022-07-31T22:44:13.581Z,100048.19
2022-07-31T22:46:19.156Z,100042.28
2022-07-31T22:48:47.504Z,100044.84
2022-07-31T22:51:15.942Z,100048.28
2022-07-31T22:53:44.426Z,100045.78
2022-07-31T22:56:16.827Z,100051.81
2022-07-31T22:58:46.326Z,100046.56
2022-07-31T23:01:14.719Z,100055.44
2022-07-31T23:03:42.923Z,100051.25
2022-07-31T23:06:30.987Z,100053.19
2022-07-31T23:09:00.058Z,100049.53
2022-07-31T23:11:28.470Z,100041.22
2022-07-31T23:13:57.993Z,100045.25
2022-07-31T23:16:26.163Z,100042.69
2022-07-31T23:18:54.346Z,100045.56
2022-07-31T23:21:23.095Z,100044.78
2022-07-31T23:23:51.699Z,100045.47
2022-07-31T23:26:20.664Z,100038.41
2022-07-31T23:28:49.337Z,100047.28
2022-07-31T23:31:19.225Z,100032.50
2022-07-31T23:33:48.106Z,100037.59
2022-07-31T23:36:17.013Z,100035.63
2022-07-31T23:38:45.747Z,100038.03
2022-07-31T23:41:14.315Z,100030.53
2022-07-31T23:43:41.979Z,100035.97
2022-07-31T23:46:26.988Z,100031.06
2022-07-31T23:48:56.207Z,100026.66
2022-07-31T23:51:24.491Z,100029.13
2022-07-31T23:53:52.758Z,100020.91
2022-07-31T23:56:20.916Z,100023.59
2022-07-31T23:58:49.351Z,100022.63
